Hazelton, West Virginia
Current Conditions -  °F | °C
As of 4:20 AM on Sunday 26 Oct 2014 (Local Time) from K2G4 Reporting Station
Clear Clear  
Wind Chill: 39°   Ceiling: Unl
Heat Index: 45°   Visibility: 10mi
Dew Point: 25°   Wind: 12mph
Humidity: 46%   Direction: 290°WNW
Pressure: 29.81"   Gusts: 17mph
Location:  39.65°N, 79.53°W
Report Text: K2G4 260820Z AUTO 29010G15KT 262V322 10SM CLR 07/M04 A2981 RMK AO1
Loading
Personal Weather Stations






























Interactive Weather Map
Tropical Storm Tracking
New forecast layout! Learn more

10-Day Weather Forecast

Advertisements
Track Severe Weather on mobile